ケアンズ の空港の天気 - METARとTAF

ケアンズ国際空港 ( YBCS / CNS ) - オーストラリア クイーンズランド州ケアンズ
飛行場実況気象(Metar)
観測時間09/23 09:30 AEST (09/22 23:30 UTC)
風向・風速南東 9m/s
視程10km以上
天気現象
全天の4割程度の雲 雲底高度 980m
全天の4割程度の雲 雲底高度 1830m
気温25℃
湿度57%
気圧1019hPa
METARYBCS 222330Z 13018KT 9999 SCT032 SCT060 25/16 Q1019 NOSIG
過去の天気等 Google飛行場航空写真 Wunderground天気予報

過去48時間のMETAR

飛行場予報(TAF)
発表時間: 9/23 09:29 AEST (9/22 23:29 UTC)
予報対象時間: 23日10時 AEST ~ 24日10時 AEST
風向・風速南東 9m/s
視程10km以上
天気現象弱いしゅう雨
全天の4割程度の雲 雲底高度 760m
全天の4割程度の雲 雲底高度 1370m
23日18時 AEST から
風向・風速南南東 6m/s
視程10km以上
天気現象弱いしゅう雨
全天の4割程度の雲 雲底高度 760m
全天の8割程度の雲 雲底高度 1220m
TAF YBCS 222329Z 2300/2324 13018KT 9999 -SHRA SCT025 SCT045
FM230800 15012KT 9999 -SHRA SCT025 BKN040 INTER 2310/2324 4000 SHRA FEW008 BKN015